Pagrindinis puslapis
METAR-TAF:

METAR-TAF

Oro uostai :

Fairford, Anglija

platuma: 51-41N, ilguma: 001-47W, Aukštis: 87 m

Dabartinis oras

Ataskaita buvo paskelbta 35 minutes, ne 19:56 UTC
Vėjas 3 kt iš Vakarų/Šiaurės Vakarų
Temperatūra 0°C
Drėgmė 93%
Slėgis 1045 hPa
Matomumas 10 km arba daugiau
Giedras dangus

METAR: EGVA 201956Z AUTO 29003KT 9999 CLR 00/M01 A3086 RMK AO2 SLP459 T10031006 $

Laikas: 20:31 (20:31 UTC)


TAF: trūkstamas

Orai ataskaitas ir orų prognozės (METAR, TAF).

turimą stotys yra geltonos ir raudonos taškus žemėlapyje.

Perkelti pele per norėdami pamatyti stoties vardą.

Tada spustelėkite, norėdami matyti oro stebėjimo ir prognozės.

Norėdami pakeisti žemėlapį: spustelėkite ant žalios mygtukų su juodo kryžiaus žemyn,; žalią mygtuką su brūkšneliu, jei norite nutolinti; arba žalių rodyklių gretimoms žemėlapius.


METAR-TAF: